createdAt,value
2022-09-07T00:01:29.220Z,100887.88
2022-09-07T00:03:56.085Z,100887.53
2022-09-07T00:06:22.937Z,100884.66
2022-09-07T00:08:49.744Z,100892.06
2022-09-07T00:11:16.610Z,100899.47
2022-09-07T00:13:43.396Z,100885.88
2022-09-07T00:16:10.330Z,100878.47
2022-09-07T00:18:37.172Z,100866.16
2022-09-07T00:21:04.036Z,100859.44
2022-09-07T00:23:31.037Z,100867.91
2022-09-07T00:25:57.881Z,100866.47
2022-09-07T00:28:24.767Z,100855.97
2022-09-07T00:30:51.600Z,100846.34
2022-09-07T00:33:18.417Z,100850.03
2022-09-07T00:35:46.292Z,100843.53
2022-09-07T00:38:13.114Z,100845.56
2022-09-07T00:40:39.939Z,100850.13
2022-09-07T00:43:06.793Z,100859.41
2022-09-07T00:45:33.657Z,100859.22
2022-09-07T00:48:00.640Z,100851.50
2022-09-07T00:50:27.475Z,100850.88
2022-09-07T00:52:54.310Z,100857.09
2022-09-07T00:55:21.579Z,100851.75
2022-09-07T00:57:49.159Z,100860.94
2022-09-07T01:00:16.057Z,100861.41
2022-09-07T01:02:43.004Z,100857.13
2022-09-07T01:05:09.888Z,100860.81
2022-09-07T01:07:36.775Z,100860.31
2022-09-07T01:10:03.901Z,100877.31
2022-09-07T01:12:31.399Z,100871.81
2022-09-07T01:14:58.241Z,100883.59
2022-09-07T01:17:25.154Z,100880.97
2022-09-07T01:19:51.960Z,100881.63
2022-09-07T01:22:18.763Z,100871.81
2022-09-07T01:24:45.569Z,100874.41
2022-09-07T01:27:12.394Z,100872.03
2022-09-07T01:29:39.234Z,100866.00
2022-09-07T01:32:06.068Z,100861.16
2022-09-07T01:34:33.318Z,100871.91
2022-09-07T01:37:00.309Z,100863.66
2022-09-07T01:39:27.188Z,100856.50
2022-09-07T01:41:54.059Z,100858.66
2022-09-07T01:44:20.885Z,100858.06
2022-09-07T01:46:47.890Z,100867.44
2022-09-07T01:49:14.788Z,100862.09
2022-09-07T01:51:41.609Z,100853.38
2022-09-07T01:54:08.409Z,100862.75
2022-09-07T01:56:35.416Z,100863.06
2022-09-07T01:59:02.231Z,100855.31
2022-09-07T02:01:29.239Z,100862.84
2022-09-07T02:03:56.090Z,100861.97
2022-09-07T02:06:22.914Z,100875.91
2022-09-07T02:08:49.716Z,100867.13
2022-09-07T02:11:16.527Z,100869.44
2022-09-07T02:13:43.355Z,100868.50
2022-09-07T02:16:10.746Z,100870.00
2022-09-07T02:18:37.570Z,100857.56
2022-09-07T02:21:04.380Z,100863.16
2022-09-07T02:23:31.193Z,100864.34
2022-09-07T02:25:58.096Z,100868.00
2022-09-07T02:28:24.978Z,100853.59
2022-09-07T02:30:52.004Z,100855.63
2022-09-07T02:33:18.840Z,100842.22
2022-09-07T02:35:45.822Z,100834.53
2022-09-07T02:38:12.657Z,100828.47
2022-09-07T02:40:40.040Z,100831.66
2022-09-07T02:43:06.861Z,100828.91
2022-09-07T02:45:33.653Z,100821.94
2022-09-07T02:48:00.775Z,100820.56
2022-09-07T02:50:27.652Z,100822.72
2022-09-07T02:52:54.549Z,100820.47
2022-09-07T02:55:21.957Z,100798.19
2022-09-07T02:57:48.788Z,100792.59
2022-09-07T03:00:15.593Z,100796.75
2022-09-07T03:02:42.509Z,100800.41
2022-09-07T03:05:09.400Z,100794.06
2022-09-07T03:07:38.200Z,100795.47
2022-09-07T03:10:06.785Z,100806.94
2022-09-07T03:12:33.600Z,100808.56
2022-09-07T03:15:00.403Z,100808.84
2022-09-07T03:17:27.340Z,100810.78
2022-09-07T03:19:54.285Z,100803.88
2022-09-07T03:22:21.088Z,100812.84
2022-09-07T03:24:47.905Z,100820.53
2022-09-07T03:27:14.726Z,100818.84
2022-09-07T03:29:42.232Z,100812.72
2022-09-07T03:32:09.097Z,100809.09
2022-09-07T03:34:36.217Z,100804.91
2022-09-07T03:37:03.288Z,100806.78
2022-09-07T03:39:30.736Z,100799.38
2022-09-07T03:41:57.586Z,100796.81
2022-09-07T03:44:24.421Z,100793.53
2022-09-07T03:46:51.229Z,100787.88
2022-09-07T03:49:18.056Z,100791.16
2022-09-07T03:51:44.862Z,100797.75
2022-09-07T03:54:11.666Z,100790.28
2022-09-07T03:56:38.515Z,100789.16
2022-09-07T03:59:05.437Z,100788.19
2022-09-07T04:01:32.277Z,100794.34
2022-09-07T04:04:02.225Z,100788.22
2022-09-07T04:06:29.470Z,100792.84
2022-09-07T04:08:56.571Z,100787.91
2022-09-07T04:11:23.426Z,100776.50
2022-09-07T04:13:50.260Z,100780.13
2022-09-07T04:16:17.119Z,100773.63
2022-09-07T04:18:43.962Z,100772.47
2022-09-07T04:21:10.775Z,100773.19
2022-09-07T04:23:37.614Z,100763.13
2022-09-07T04:26:04.433Z,100750.84
2022-09-07T04:28:31.494Z,100758.34
2022-09-07T04:30:58.710Z,100755.34
2022-09-07T04:33:25.609Z,100755.31
2022-09-07T04:35:52.411Z,100756.50
2022-09-07T04:38:19.216Z,100769.25
2022-09-07T04:40:46.044Z,100758.69
2022-09-07T04:43:13.242Z,100753.41
2022-09-07T04:45:40.258Z,100743.09
2022-09-07T04:48:07.156Z,100727.72
2022-09-07T04:50:33.973Z,100729.88
2022-09-07T04:53:00.793Z,100734.50
2022-09-07T04:55:27.619Z,100745.97
2022-09-07T04:57:54.431Z,100754.50
2022-09-07T05:00:21.281Z,100761.81
2022-09-07T05:02:48.183Z,100762.13
2022-09-07T05:05:15.061Z,100748.53
2022-09-07T05:07:41.934Z,100740.22
2022-09-07T05:10:08.762Z,100741.59
2022-09-07T05:12:35.568Z,100736.81
2022-09-07T05:15:02.397Z,100732.28
2022-09-07T05:17:30.996Z,100747.91
2022-09-07T05:19:57.829Z,100738.13
2022-09-07T05:22:27.509Z,100738.22
2022-09-07T05:24:54.355Z,100738.50
2022-09-07T05:27:21.152Z,100736.31
2022-09-07T05:30:04.462Z,100731.53
2022-09-07T05:32:32.170Z,100736.38
2022-09-07T05:34:58.999Z,100733.59
2022-09-07T05:37:25.855Z,100731.84
2022-09-07T05:39:56.998Z,100725.34
2022-09-07T05:42:23.920Z,100726.66
2022-09-07T05:44:50.729Z,100714.19
2022-09-07T05:47:17.545Z,100715.91
2022-09-07T05:49:44.358Z,100726.53
2022-09-07T05:52:11.223Z,100732.38
2022-09-07T05:54:38.122Z,100730.75
2022-09-07T05:57:04.977Z,100731.31
2022-09-07T05:59:31.804Z,100738.69
2022-09-07T06:01:58.786Z,100741.34
2022-09-07T06:04:25.811Z,100747.22
2022-09-07T06:07:18.053Z,100735.88
2022-09-07T06:12:26.280Z,100751.00
2022-09-07T06:14:53.107Z,100777.69
2022-09-07T06:17:19.958Z,100810.50
2022-09-07T06:19:46.769Z,100804.88
2022-09-07T06:22:13.606Z,100784.16
2022-09-07T06:24:40.412Z,100765.91
2022-09-07T06:27:07.212Z,100776.00
2022-09-07T06:29:37.022Z,100798.19
2022-09-07T06:34:51.324Z,100791.66
2022-09-07T06:37:19.310Z,100829.50
2022-09-07T06:39:53.844Z,100842.94
2022-09-07T06:42:24.310Z,100798.81
2022-09-07T06:44:51.123Z,100800.78
2022-09-07T06:47:17.933Z,100838.63
2022-09-07T06:49:44.744Z,100830.06
2022-09-07T06:52:11.874Z,100795.97
2022-09-07T06:57:27.019Z,100806.59
2022-09-07T06:59:53.886Z,100800.03
2022-09-07T07:02:20.694Z,100779.09
2022-09-07T07:04:47.759Z,100774.00
2022-09-07T07:07:14.659Z,100772.81
2022-09-07T07:09:41.615Z,100776.88
2022-09-07T07:12:08.473Z,100776.56
2022-09-07T07:14:38.493Z,100763.53
2022-09-07T07:17:06.765Z,100763.88
2022-09-07T07:19:33.656Z,100760.84
2022-09-07T07:24:47.309Z,100763.25
2022-09-07T07:27:14.128Z,100770.13
2022-09-07T07:29:40.938Z,100773.78
2022-09-07T07:32:07.762Z,100779.66
2022-09-07T07:34:34.595Z,100772.75
2022-09-07T07:37:01.794Z,100770.47
2022-09-07T07:42:15.444Z,100770.06
2022-09-07T07:44:42.296Z,100768.91
2022-09-07T07:47:09.057Z,100763.09
2022-09-07T07:49:35.970Z,100759.94
2022-09-07T07:54:49.576Z,100748.66
2022-09-07T07:57:19.392Z,100756.16
2022-09-07T07:59:46.208Z,100750.97
2022-09-07T08:02:13.404Z,100747.84
2022-09-07T08:04:40.274Z,100756.75
2022-09-07T08:07:10.722Z,100752.19
2022-09-07T08:09:37.985Z,100751.78
2022-09-07T08:12:04.791Z,100748.63
2022-09-07T08:14:31.596Z,100746.25
2022-09-07T08:16:58.425Z,100741.34
2022-09-07T08:19:25.488Z,100746.06
2022-09-07T08:21:52.350Z,100743.63
2022-09-07T08:24:19.296Z,100751.41
2022-09-07T08:26:46.097Z,100744.66
2022-09-07T08:29:13.128Z,100745.22
2022-09-07T08:31:39.974Z,100744.19
2022-09-07T08:34:07.621Z,100741.53
2022-09-07T08:36:34.369Z,100736.44
2022-09-07T08:39:01.189Z,100742.06
2022-09-07T08:41:27.974Z,100734.88
2022-09-07T08:43:54.800Z,100735.53
2022-09-07T08:46:21.578Z,100740.97
2022-09-07T08:48:48.449Z,100740.72
2022-09-07T08:51:15.188Z,100736.16
2022-09-07T08:53:41.929Z,100740.41
2022-09-07T08:56:10.142Z,100759.06
2022-09-07T08:58:52.252Z,100765.66
2022-09-07T09:01:35.501Z,100775.66
2022-09-07T09:04:19.184Z,100766.09
2022-09-07T09:06:46.396Z,100758.91
2022-09-07T09:09:13.460Z,100761.63
2022-09-07T09:11:40.217Z,100773.28
2022-09-07T09:14:07.193Z,100769.13
2022-09-07T09:16:34.058Z,100768.13
2022-09-07T09:19:01.122Z,100766.69
2022-09-07T09:21:27.981Z,100766.28
2022-09-07T09:23:55.050Z,100759.41
2022-09-07T09:26:21.989Z,100761.69
2022-09-07T09:28:48.752Z,100767.81
2022-09-07T09:31:15.550Z,100758.84
2022-09-07T09:33:42.342Z,100765.44
2022-09-07T09:36:09.108Z,100760.44
2022-09-07T09:38:35.914Z,100751.72
2022-09-07T09:41:03.225Z,100755.31
2022-09-07T09:43:30.070Z,100758.31
2022-09-07T09:46:12.706Z,100745.97
2022-09-07T09:48:41.417Z,100745.41
2022-09-07T09:53:55.005Z,100746.69
2022-09-07T09:56:23.042Z,100748.63
2022-09-07T09:59:05.709Z,100753.06
2022-09-07T10:03:10.460Z,100741.56
2022-09-07T10:04:24.708Z,100744.53
2022-09-07T10:06:51.678Z,100747.31
2022-09-07T10:09:18.694Z,100735.13
2022-09-07T10:14:32.228Z,100733.41
2022-09-07T10:16:59.058Z,100732.53
2022-09-07T10:19:25.958Z,100725.50
2022-09-07T10:21:52.716Z,100732.03
2022-09-07T10:24:19.470Z,100730.13
2022-09-07T10:26:48.488Z,100733.72
2022-09-07T10:29:16.355Z,100728.84
2022-09-07T10:31:43.532Z,100730.88
2022-09-07T10:34:26.150Z,100731.97
2022-09-07T10:36:53.245Z,100727.09
2022-09-07T10:39:20.316Z,100717.81
2022-09-07T10:41:47.776Z,100715.19
2022-09-07T10:44:15.169Z,100704.59
2022-09-07T10:46:57.692Z,100704.75
2022-09-07T10:49:25.145Z,100718.88
2022-09-07T10:51:51.902Z,100715.47
2022-09-07T10:54:34.211Z,100718.97
2022-09-07T10:57:01.873Z,100712.31
2022-09-07T11:00:07.600Z,100712.38
2022-09-07T11:02:17.958Z,100706.44
2022-09-07T11:04:45.325Z,100714.19
2022-09-07T11:07:15.512Z,100715.91
2022-09-07T11:09:42.683Z,100708.34
2022-09-07T11:12:09.465Z,100700.59
2022-09-07T11:14:36.259Z,100685.47
2022-09-07T11:17:03.432Z,100680.91
2022-09-07T11:19:38.078Z,100694.97
2022-09-07T11:22:05.081Z,100694.66
2022-09-07T11:24:31.834Z,100701.84
2022-09-07T11:26:58.662Z,100685.94
2022-09-07T11:29:32.682Z,100689.75
2022-09-07T11:31:59.749Z,100680.56
2022-09-07T11:34:26.529Z,100680.72
2022-09-07T11:36:53.273Z,100681.84
2022-09-07T11:39:20.028Z,100693.16
2022-09-07T11:41:46.964Z,100688.56
2022-09-07T11:44:13.830Z,100691.31
2022-09-07T11:46:40.679Z,100693.41
2022-09-07T11:49:07.533Z,100682.25
2022-09-07T11:51:34.298Z,100687.34
2022-09-07T11:54:01.867Z,100685.28
2022-09-07T11:56:28.751Z,100676.47
2022-09-07T11:58:55.484Z,100681.94
2022-09-07T12:01:22.866Z,100677.88
2022-09-07T12:03:49.750Z,100680.78
2022-09-07T12:06:16.624Z,100681.19
2022-09-07T12:08:43.402Z,100677.38
2022-09-07T12:11:10.236Z,100671.13
2022-09-07T12:13:37.162Z,100666.22
2022-09-07T12:16:03.957Z,100655.16
2022-09-07T12:18:31.009Z,100655.69
2022-09-07T12:20:57.985Z,100649.75
2022-09-07T12:23:24.736Z,100643.03
2022-09-07T12:25:52.787Z,100645.16
2022-09-07T12:28:22.024Z,100642.44
2022-09-07T12:30:49.849Z,100634.56
2022-09-07T12:33:16.633Z,100627.75
2022-09-07T12:35:43.893Z,100629.28
2022-09-07T12:38:10.703Z,100631.41
2022-09-07T12:40:37.525Z,100627.28
2022-09-07T12:43:09.714Z,100627.88
2022-09-07T12:45:36.808Z,100625.53
2022-09-07T12:48:04.541Z,100630.66
2022-09-07T12:50:31.517Z,100623.59
2022-09-07T12:52:58.274Z,100619.94
2022-09-07T12:55:28.289Z,100611.63
2022-09-07T12:57:55.854Z,100609.25
2022-09-07T13:00:25.673Z,100606.81
2022-09-07T13:02:52.457Z,100604.09
2022-09-07T13:05:19.193Z,100609.81
2022-09-07T13:07:46.111Z,100599.44
2022-09-07T13:10:12.867Z,100593.59
2022-09-07T13:12:57.423Z,100598.66
2022-09-07T13:15:24.633Z,100602.94
2022-09-07T13:17:51.471Z,100606.50
2022-09-07T13:20:18.248Z,100606.34
2022-09-07T13:22:45.161Z,100599.78
2022-09-07T13:25:12.753Z,100601.25
2022-09-07T13:27:39.616Z,100599.28
2022-09-07T13:30:07.285Z,100605.81
2022-09-07T13:35:21.513Z,100589.56
2022-09-07T13:37:48.313Z,100594.47
2022-09-07T13:40:15.114Z,100595.06
2022-09-07T13:42:41.936Z,100594.75
2022-09-07T13:45:08.733Z,100589.88
2022-09-07T13:47:35.472Z,100584.59
2022-09-07T13:50:02.627Z,100576.28
2022-09-07T13:52:29.426Z,100589.41
2022-09-07T13:54:56.455Z,100585.50
2022-09-07T13:57:23.358Z,100581.69
2022-09-07T13:59:50.225Z,100571.72
2022-09-07T14:02:17.027Z,100574.88
2022-09-07T14:04:44.348Z,100561.28
2022-09-07T14:07:11.100Z,100563.56
2022-09-07T14:09:38.041Z,100557.13
2022-09-07T14:12:04.845Z,100567.06
2022-09-07T14:14:32.994Z,100566.56
2022-09-07T14:17:00.270Z,100559.16
2022-09-07T14:19:27.261Z,100559.63
2022-09-07T14:21:54.138Z,100564.09
2022-09-07T14:24:21.508Z,100566.03
2022-09-07T14:26:48.729Z,100561.59
2022-09-07T14:29:15.484Z,100561.25
2022-09-07T14:31:42.247Z,100557.53
2022-09-07T14:34:09.020Z,100551.09
2022-09-07T14:36:45.708Z,100549.09
2022-09-07T14:39:13.094Z,100553.41
2022-09-07T14:41:41.340Z,100556.28
2022-09-07T14:44:08.074Z,100554.28
2022-09-07T14:46:34.899Z,100551.66
2022-09-07T14:49:02.488Z,100555.16
2022-09-07T14:51:35.715Z,100548.81
2022-09-07T14:54:03.547Z,100547.91
2022-09-07T14:56:30.303Z,100545.81
2022-09-07T14:58:57.074Z,100552.31
2022-09-07T15:01:39.648Z,100550.63
2022-09-07T15:04:06.521Z,100556.41
2022-09-07T15:09:20.446Z,100558.31
2022-09-07T15:11:47.209Z,100550.88
2022-09-07T15:14:13.962Z,100552.75
2022-09-07T15:16:40.964Z,100544.34
2022-09-07T15:19:08.912Z,100539.03
2022-09-07T15:21:36.548Z,100542.56
2022-09-07T15:24:03.956Z,100536.59
2022-09-07T15:29:21.058Z,100536.63
2022-09-07T15:31:59.337Z,100536.22
2022-09-07T15:34:29.396Z,100533.72
2022-09-07T15:36:59.812Z,100528.13
2022-09-07T15:39:30.642Z,100528.53
2022-09-07T15:41:58.207Z,100528.97
2022-09-07T15:44:28.470Z,100517.22
2022-09-07T15:49:46.020Z,100514.88
2022-09-07T15:52:16.196Z,100509.13
2022-09-07T15:54:43.480Z,100505.38
2022-09-07T15:59:57.306Z,100509.31
2022-09-07T16:05:11.159Z,100508.81
2022-09-07T16:10:24.805Z,100503.22
2022-09-07T16:15:38.334Z,100510.66
2022-09-07T16:18:05.347Z,100517.28
2022-09-07T16:20:32.474Z,100515.09
2022-09-07T16:23:15.830Z,100519.81
2022-09-07T16:25:43.685Z,100515.91
2022-09-07T16:28:10.487Z,100521.69
2022-09-07T16:30:37.240Z,100517.66
2022-09-07T16:33:04.263Z,100521.81
2022-09-07T16:35:31.966Z,100514.66
2022-09-07T16:40:46.970Z,100522.34
2022-09-07T16:43:13.761Z,100516.44
2022-09-07T16:46:10.466Z,100507.13
2022-09-07T16:48:27.365Z,100513.28
2022-09-07T16:51:01.086Z,100523.88
2022-09-07T16:53:28.663Z,100519.38
2022-09-07T16:55:55.413Z,100527.16
2022-09-07T16:58:37.885Z,100517.31
2022-09-07T17:01:05.134Z,100519.16
2022-09-07T17:03:32.016Z,100509.41
2022-09-07T17:05:58.819Z,100492.56
2022-09-07T17:08:25.745Z,100505.59
2022-09-07T17:10:52.483Z,100503.53
2022-09-07T17:13:19.858Z,100503.88
2022-09-07T17:15:46.721Z,100503.63
2022-09-07T17:18:16.506Z,100500.91
2022-09-07T17:20:43.349Z,100503.47
2022-09-07T17:23:10.308Z,100506.53
2022-09-07T17:25:37.789Z,100516.91
2022-09-07T17:28:04.900Z,100521.16
2022-09-07T17:30:31.888Z,100518.09
2022-09-07T17:32:58.834Z,100519.38
2022-09-07T17:35:25.712Z,100506.63
2022-09-07T17:37:52.557Z,100501.50
2022-09-07T17:40:19.371Z,100496.00
2022-09-07T17:45:33.146Z,100506.59
2022-09-07T17:47:59.966Z,100517.22
2022-09-07T17:50:26.945Z,100523.44
2022-09-07T17:52:53.704Z,100534.44
2022-09-07T17:55:20.453Z,100544.22
2022-09-07T17:57:47.205Z,100542.13
2022-09-07T18:00:13.982Z,100532.81
2022-09-07T18:02:40.979Z,100548.97
2022-09-07T18:05:08.122Z,100551.41
2022-09-07T18:07:35.250Z,100556.66
2022-09-07T18:10:02.648Z,100560.25
2022-09-07T18:12:29.410Z,100556.44
2022-09-07T18:14:56.527Z,100544.97
2022-09-07T18:17:23.496Z,100544.13
2022-09-07T18:19:50.677Z,100534.88
2022-09-07T18:22:17.731Z,100538.56
2022-09-07T18:24:44.508Z,100528.72
2022-09-07T18:27:11.736Z,100537.28
2022-09-07T18:29:38.737Z,100537.66
2022-09-07T18:32:08.636Z,100538.28
2022-09-07T18:34:35.584Z,100533.16
2022-09-07T18:37:05.843Z,100534.25
2022-09-07T18:39:33.412Z,100533.78
2022-09-07T18:42:00.385Z,100535.91
2022-09-07T18:47:21.177Z,100535.91
2022-09-07T18:49:49.896Z,100543.41
2022-09-07T18:55:06.147Z,100557.19
2022-09-07T18:57:33.037Z,100565.91
2022-09-07T18:59:59.838Z,100564.34
2022-09-07T19:02:26.798Z,100581.38
2022-09-07T19:07:40.557Z,100578.50
2022-09-07T19:10:08.151Z,100578.66
2022-09-07T19:12:34.893Z,100579.59
2022-09-07T19:15:01.656Z,100560.94
2022-09-07T19:17:31.597Z,100564.16
2022-09-07T19:20:01.359Z,100566.75
2022-09-07T19:22:28.140Z,100557.88
2022-09-07T19:24:55.090Z,100554.50
2022-09-07T19:27:22.017Z,100549.63
2022-09-07T19:29:49.460Z,100535.00
2022-09-07T19:32:17.195Z,100540.59
2022-09-07T19:34:45.350Z,100538.47
2022-09-07T19:37:12.417Z,100544.06
2022-09-07T19:39:39.892Z,100549.25
2022-09-07T19:42:06.816Z,100550.34
2022-09-07T19:44:33.766Z,100548.78
2022-09-07T19:47:01.209Z,100538.94
2022-09-07T19:49:28.741Z,100545.88
2022-09-07T19:51:55.812Z,100540.84
2022-09-07T19:54:22.748Z,100537.84
2022-09-07T19:56:49.574Z,100537.16
2022-09-07T19:59:18.258Z,100524.53
2022-09-07T20:01:47.121Z,100522.50
2022-09-07T20:04:19.593Z,100535.53
2022-09-07T20:06:49.119Z,100533.41
2022-09-07T20:09:16.712Z,100532.69
2022-09-07T20:11:46.886Z,100536.41
2022-09-07T20:14:14.131Z,100540.28
2022-09-07T20:16:41.854Z,100533.84
2022-09-07T20:19:09.290Z,100521.50
2022-09-07T20:21:36.776Z,100518.69
2022-09-07T20:24:03.892Z,100513.81
2022-09-07T20:26:32.131Z,100514.25
2022-09-07T20:29:16.675Z,100505.78
2022-09-07T20:31:46.606Z,100498.41
2022-09-07T20:34:13.576Z,100494.28
2022-09-07T20:36:40.453Z,100494.56
2022-09-07T20:39:07.525Z,100502.88
2022-09-07T20:41:34.506Z,100504.53
2022-09-07T20:44:01.371Z,100501.91
2022-09-07T20:46:28.877Z,100503.91
2022-09-07T20:48:55.983Z,100500.00
2022-09-07T20:51:23.048Z,100498.09
2022-09-07T20:53:49.869Z,100492.72
2022-09-07T20:56:16.702Z,100493.69
2022-09-07T20:58:43.731Z,100498.94
2022-09-07T21:01:10.845Z,100502.22
2022-09-07T21:03:37.704Z,100505.38
2022-09-07T21:06:04.543Z,100493.16
2022-09-07T21:08:31.588Z,100493.72
2022-09-07T21:10:58.364Z,100505.66
2022-09-07T21:13:25.286Z,100519.19
2022-09-07T21:15:52.468Z,100519.72
2022-09-07T21:18:19.432Z,100522.56
2022-09-07T21:21:04.281Z,100512.19
2022-09-07T21:23:33.492Z,100515.75
2022-09-07T21:26:00.455Z,100523.59
2022-09-07T21:28:27.405Z,100523.16
2022-09-07T21:30:54.368Z,100508.72
2022-09-07T21:33:21.351Z,100493.06
2022-09-07T21:35:48.223Z,100499.22
2022-09-07T21:38:15.024Z,100502.91
2022-09-07T21:40:41.845Z,100506.03
2022-09-07T21:43:08.842Z,100511.53
2022-09-07T21:45:35.746Z,100507.00
2022-09-07T21:48:05.455Z,100505.44
2022-09-07T21:50:32.318Z,100507.56
2022-09-07T21:52:59.275Z,100500.34
2022-09-07T21:55:26.225Z,100493.53
2022-09-07T21:57:53.113Z,100488.13
2022-09-07T22:00:20.465Z,100482.44
2022-09-07T22:02:47.288Z,100481.50
2022-09-07T22:05:14.209Z,100480.19
2022-09-07T22:07:41.701Z,100473.47
2022-09-07T22:10:08.915Z,100483.28
2022-09-07T22:12:35.921Z,100483.34
2022-09-07T22:15:03.164Z,100478.66
2022-09-07T22:17:30.114Z,100477.19
2022-09-07T22:19:56.930Z,100480.34
2022-09-07T22:22:23.896Z,100475.91
2022-09-07T22:24:50.633Z,100475.13
2022-09-07T22:27:17.452Z,100466.84
2022-09-07T22:29:44.816Z,100464.75
2022-09-07T22:32:11.562Z,100468.25
2022-09-07T22:34:38.315Z,100467.53
2022-09-07T22:37:05.292Z,100470.03
2022-09-07T22:39:32.355Z,100470.22
2022-09-07T22:41:59.174Z,100466.97
2022-09-07T22:44:27.538Z,100471.34
2022-09-07T22:46:57.075Z,100474.00
2022-09-07T22:49:23.912Z,100475.53
2022-09-07T22:51:51.002Z,100468.88
2022-09-07T22:54:17.762Z,100453.28
2022-09-07T22:56:44.571Z,100446.81
2022-09-07T22:59:11.644Z,100439.13
2022-09-07T23:01:38.596Z,100447.16
2022-09-07T23:04:05.537Z,100446.09
2022-09-07T23:06:32.654Z,100444.25
2022-09-07T23:08:59.432Z,100442.09
2022-09-07T23:11:26.661Z,100438.09
2022-09-07T23:13:53.631Z,100441.25
2022-09-07T23:16:21.143Z,100440.22
2022-09-07T23:18:48.402Z,100443.03
2022-09-07T23:21:15.397Z,100438.84
2022-09-07T23:23:42.467Z,100438.63
2022-09-07T23:26:09.593Z,100440.00
2022-09-07T23:28:36.761Z,100447.28
2022-09-07T23:31:03.677Z,100444.66
2022-09-07T23:33:30.663Z,100457.72
2022-09-07T23:35:57.529Z,100450.19
2022-09-07T23:38:25.402Z,100453.38
2022-09-07T23:40:52.512Z,100451.53
2022-09-07T23:43:19.575Z,100445.47
2022-09-07T23:45:46.386Z,100444.59
2022-09-07T23:48:15.822Z,100435.84
2022-09-07T23:50:42.588Z,100430.69
2022-09-07T23:53:09.336Z,100419.41
2022-09-07T23:55:36.132Z,100428.84
2022-09-07T23:58:02.914Z,100426.09
